Ash Ridge, Ohio
Current Conditions -  °F | °C
As of 11:55 AM on Saturday 20 Dec 2014 (Local Time) from KFGX Reporting Station
Overcast Overcast  
Wind Chill: 31°   Ceiling: 1600
Heat Index: 31°   Visibility: 10mi
Dew Point: 27°   Wind: 0mph
Humidity: 85%   Direction: NA
Pressure: 30.28"   Gusts: NA
Location:  38.8698°N, 83.9081°W
Report Text: KFGX 201655Z AUTO 00000KT 10SM SCT011 OVC016 M01/M03 A3028 RMK AO2 T10071030
Loading
Personal Weather Stations






























Interactive Weather Map New forecast layout! Learn more

10-Day Weather Forecast

Advertisements
Track Severe Weather on mobile